Weather reports worldwide

Advertisment
Bala, United Kingdom (3409): temperature & dewpoint: 13.02.2018 14:00:00 - 19.02.2018 14:00:00 (GMT)Bala, United Kingdom (3409): temperature -20cm & temperature -100cm: 13.02.2018 14:00:00 - 19.02.2018 14:00:00 (GMT)Bala, United Kingdom (3409): wind speed & gusts: 13.02.2018 14:00:00 - 19.02.2018 14:00:00 (GMT)Bala, United Kingdom (3409): wind direction: 13.02.2018 14:00:00 - 19.02.2018 14:00:00 (GMT)Bala, United Kingdom (3409): reduced air pressure: 13.02.2018 14:00:00 - 19.02.2018 14:00:00 (GMT)Bala, United Kingdom (3409): sunshine duration: 13.02.2018 14:00:00 - 19.02.2018 14:00:00 (GMT)Bala, United Kingdom (3409): precipitation: 13.02.2018 14:00:00 - 19.02.2018 14:00:00 (GMT)
Date & Time tt [°C] td [°C] tt -20cm [°C] tt -100cm [°C] ff [km/h] ff [kn] fx [km/h] fx [kn] dd ppp [hPa] sd [min] rr [mm]
19.02.2018 14:00:00 - - - - - - - - - - - 0,0
19.02.2018 13:00:00 11,2 7,9 - - 5 3 - - W 1018,3 0 0,0
19.02.2018 12:00:00 10,4 8,2 - - 8 4 - - W 1018,6 0 0,0
19.02.2018 11:00:00 9,8 8,3 - - 8 4 - - WSW 1018,3 0 0,0
19.02.2018 10:00:00 9,4 8,8 - - 9 5 - - WSW 1018,3 0 0,0
19.02.2018 09:00:00 8,5 8,2 5,0 5,2 5 3 - - W 1018,1 0 0,0
19.02.2018 08:00:00 8,5 8,2 - - 5 3 - - W 1017,9 0 0,0
19.02.2018 07:00:00 8,4 8,0 - - 8 4 - - WSW 1017,5 0 0,0
19.02.2018 06:00:00 8,4 8,1 - - 8 4 - - W 1017,2 0 0,0
19.02.2018 05:00:00 8,2 7,9 - - 11 6 - - WSW 1017,2 0 0,0
19.02.2018 04:00:00 8,1 8,0 - - 9 5 - - W 1017,0 0 0,0
19.02.2018 03:00:00 7,7 7,6 - - 13 7 - - WSW 1017,4 0 0,0
19.02.2018 02:00:00 7,4 7,1 - - 15 8 - - W 1017,6 0 0,0
19.02.2018 01:00:00 7,8 7,2 - - 13 7 - - WSW 1017,9 0 0,0
19.02.2018 00:00:00 7,8 7,1 - - 15 8 - - WSW 1017,9 - 0,2
18.02.2018 23:00:00 7,4 6,8 - - 15 8 - - WSW 1017,9 0 0,4
18.02.2018 22:00:00 7,1 6,8 - - 8 4 - - WSW 1018,1 0 0,4
18.02.2018 21:00:00 7,1 6,7 - - 11 6 - - WSW 1018,3 0 0,6
18.02.2018 20:00:00 7,2 6,7 - - 11 6 - - WSW 1018,3 0 0,6
18.02.2018 19:00:00 7,2 6,6 - - 8 4 - - W 1018,4 0 0,4
18.02.2018 18:00:00 7,4 6,3 - - 4 2 - - W 1018,4 0 0,2
18.02.2018 17:00:00 8,4 6,7 - - 8 4 - - SW 1018,3 0 0,2
18.02.2018 16:00:00 8,7 6,2 - - 5 3 - - WSW 1018,3 0 0,0
18.02.2018 15:00:00 9,2 5,8 - - 8 4 - - SSW 1018,3 0 0,0
18.02.2018 14:00:00 8,9 5,5 - - 5 3 - - S 1018,6 0 0,0
18.02.2018 13:00:00 8,6 5,6 - - 5 3 - - SSW 1019,0 0 0,0
18.02.2018 12:00:00 8,6 5,9 - - 11 6 - - S 1019,1 18 0,0
18.02.2018 11:00:00 7,9 5,1 - - 13 7 - - S 1019,2 24 0,0
18.02.2018 10:00:00 6,2 5,2 - - 5 3 - - S 1019,1 0 0,0
18.02.2018 09:00:00 3,7 3,6 4,7 5,2 5 3 - - WSW 1019,6 0 0,0
18.02.2018 08:00:00 2,2 2,1 - - 4 2 - - NW 1020,1 0 0,0
18.02.2018 07:00:00 1,6 1,4 - - 0 0 - - N 1020,0 0 0,0
18.02.2018 06:00:00 1,4 1,2 - - 4 2 - - NNE 1020,0 0 0,0
18.02.2018 05:00:00 1,5 1,1 - - 0 0 - - N 1020,2 0 0,0
18.02.2018 04:00:00 2,0 1,7 - - 2 1 - - NE 1019,9 0 0,0
18.02.2018 03:00:00 2,9 2,7 - - 2 1 - - NW 1020,3 0 0,2
18.02.2018 02:00:00 3,4 3,1 - - 2 1 - - NE 1021,1 0 0,0
18.02.2018 01:00:00 3,5 3,1 - - 0 0 - - N 1020,9 0 0,0
18.02.2018 00:00:00 3,2 2,9 - - 0 0 - - N 1021,0 - 0,2
17.02.2018 23:00:00 2,7 2,2 - - 0 0 - - N 1021,0 0 0,0
17.02.2018 22:00:00 3,2 2,6 - - 2 1 - - ENE 1020,9 0 0,0
17.02.2018 21:00:00 3,4 2,7 - - 2 1 - - ENE 1020,5 0 0,0
17.02.2018 20:00:00 3,5 2,2 - - 4 2 - - E 1020,6 0 0,4
17.02.2018 19:00:00 4,8 3,1 - - 0 0 - - N 1020,8 0 0,0
17.02.2018 18:00:00 6,2 3,2 - - 4 2 - - WSW 1020,3 0 0,0
17.02.2018 17:00:00 6,6 2,8 - - 2 1 - - SW 1019,9 12 0,0
17.02.2018 16:00:00 6,7 2,8 - - 11 6 - - WSW 1019,9 6 0,0
17.02.2018 15:00:00 7,2 3,0 - - 15 8 - - SW 1019,9 6 0,0
17.02.2018 14:00:00 6,9 3,0 - - 21 11 - - SW 1019,9 24 0,0
17.02.2018 13:00:00 7,9 3,6 - - 16 9 - - WSW 1020,0 60 0,0
17.02.2018 12:00:00 7,2 3,4 - - 16 9 - - WSW 1020,2 60 0,0
17.02.2018 11:00:00 7,6 2,9 - - 15 8 - - SW 1019,8 60 0,0
17.02.2018 10:00:00 6,8 4,4 - - 4 2 - - SSW 1019,5 18 0,0
17.02.2018 09:00:00 5,0 3,9 4,4 5,2 9 5 - - W 1019,0 0 0,0
17.02.2018 08:00:00 4,9 3,8 - - 13 7 - - WSW 1018,5 0 0,0
17.02.2018 07:00:00 4,1 2,7 - - 2 1 - - SW 1018,2 0 1,8
17.02.2018 06:00:00 4,6 1,8 - - 15 8 - - SSW 1017,9 0 0,2
17.02.2018 05:00:00 4,4 1,3 - - 11 6 - - SSW 1017,9 0 0,0
17.02.2018 04:00:00 4,6 0,0 - - 11 6 - - SSW 1018,4 0 0,0
17.02.2018 03:00:00 5,1 -1,3 - - 11 6 - - S 1018,5 0 0,0
17.02.2018 02:00:00 4,4 -0,8 - - 4 2 - - ESE 1019,3 0 0,0
17.02.2018 01:00:00 3,3 -0,4 - - 2 1 - - NNW 1019,5 0 0,0
17.02.2018 00:00:00 4,2 -0,5 - - 2 1 - - S 1019,6 - 0,0
16.02.2018 23:00:00 5,1 0,4 - - 11 6 - - SSW 1019,9 0 0,0
16.02.2018 22:00:00 4,9 0,6 - - 8 4 - - SE 1019,9 0 0,0
16.02.2018 21:00:00 5,2 0,3 - - 9 5 - - S 1020,0 0 0,0
16.02.2018 20:00:00 5,2 0,1 - - 8 4 - - SSW 1020,2 0 0,0
16.02.2018 19:00:00 4,5 -1,0 - - 5 3 - - SSW 1020,6 0 0,0
16.02.2018 18:00:00 5,6 -0,7 - - 8 4 - - S 1020,8 0 0,0
16.02.2018 17:00:00 6,8 -0,3 - - 13 7 - - SSW 1020,7 0 0,0
16.02.2018 16:00:00 7,7 0,5 - - 13 7 - - SSW 1020,6 24 0,0
16.02.2018 15:00:00 8,0 0,2 - - 15 8 - - SSW 1021,1 48 0,0
16.02.2018 14:00:00 7,3 1,9 - - 22 12 - - WSW 1021,8 6 0,0
16.02.2018 13:00:00 7,4 0,8 - - 22 12 - - SW 1022,2 18 0,0
16.02.2018 12:00:00 6,3 2,1 - - 18 10 - - WSW 1022,6 6 0,0
16.02.2018 11:00:00 6,1 2,7 - - 24 13 - - WSW 1022,4 54 0,0
16.02.2018 10:00:00 5,1 2,1 - - 15 8 - - SW 1022,7 18 0,0
16.02.2018 09:00:00 4,4 1,8 4,4 5,4 18 10 - - WSW 1022,3 0 0,0
16.02.2018 08:00:00 -0,2 -1,5 - - 2 1 - - E 1022,3 0 0,0
16.02.2018 07:00:00 2,1 -1,0 - - 4 2 - - W 1021,7 0 0,0
16.02.2018 06:00:00 3,4 -0,2 - - 16 9 - - W 1021,0 0 0,0
16.02.2018 05:00:00 3,0 -0,5 - - 11 6 - - W 1020,7 0 0,0
16.02.2018 04:00:00 2,9 -0,7 - - 11 6 - - W 1020,0 0 0,0
16.02.2018 03:00:00 3,2 -0,6 - - 13 7 - - WSW 1019,9 0 0,0
16.02.2018 02:00:00 3,2 -1,1 - - 16 9 - - WSW 1019,4 0 0,0
16.02.2018 01:00:00 3,6 -1,2 - - 15 8 - - WSW 1018,5 0 0,0
16.02.2018 00:00:00 3,5 -1,4 - - 18 10 - - WSW 1017,8 - 0,0
15.02.2018 23:00:00 3,4 -1,5 - - 18 10 - - WSW 1017,0 0 0,0
15.02.2018 22:00:00 3,3 -2,0 - - 16 9 - - W 1016,3 0 0,0
15.02.2018 21:00:00 3,3 -2,0 - - 21 11 - - WSW 1015,2 0 0,0
15.02.2018 20:00:00 3,3 -0,9 - - 16 9 - - WSW 1014,5 0 0,2
15.02.2018 19:00:00 3,9 -1,7 - - 11 6 - - W 1013,3 0 0,0
15.02.2018 18:00:00 4,2 -0,7 - - 16 9 - - WSW 1012,2 0 0,0
15.02.2018 17:00:00 4,6 -1,8 - - 16 9 50 27 WSW 1011,7 18 0,0
15.02.2018 16:00:00 5,1 -1,4 - - 26 14 48 26 W 1010,4 24 0,0
15.02.2018 15:00:00 5,6 -1,0 - - 24 13 57 31 W 1009,3 24 0,0
15.02.2018 14:00:00 5,9 -1,1 - - 37 20 59 32 WSW 1008,8 42 0,0
15.02.2018 13:00:00 5,5 -3,1 - - 37 20 61 33 WSW 1008,4 36 0,0
15.02.2018 12:00:00 5,8 -2,3 - - 31 17 61 33 W 1007,8 36 0,0
15.02.2018 11:00:00 5,0 -2,4 - - 29 16 70 38 W 1007,0 36 0,0
15.02.2018 10:00:00 4,3 -2,9 - - 35 19 65 35 W 1005,9 12 0,0
15.02.2018 09:00:00 4,3 -2,0 4,4 5,4 26 14 46 25 W 1004,9 18 0,0
15.02.2018 08:00:00 4,2 -0,7 - - 26 14 48 26 WSW 1003,6 0 0,0
15.02.2018 07:00:00 3,2 1,0 - - 11 6 - - W 1002,6 0 0,0
15.02.2018 06:00:00 3,7 1,0 - - 15 8 - - W 1001,7 0 0,0
15.02.2018 05:00:00 5,1 2,5 - - 22 12 - - WSW 1000,5 0 0,6
15.02.2018 04:00:00 5,0 3,2 - - 21 11 - - WSW 999,1 0 1,8
15.02.2018 03:00:00 6,3 4,0 - - 22 12 - - WSW 998,0 0 0,0
15.02.2018 02:00:00 5,9 3,6 - - 24 13 57 31 SW 997,4 0 1,4
15.02.2018 01:00:00 6,8 4,6 - - 16 9 - - WSW 997,0 0 0,4
15.02.2018 00:00:00 6,8 4,4 - - 21 11 - - WSW 996,7 - 0,0
14.02.2018 23:00:00 7,1 4,7 - - 22 12 - - WSW 996,1 0 0,0
14.02.2018 22:00:00 7,4 5,0 - - 21 11 - - WSW 995,8 0 0,0
14.02.2018 21:00:00 7,8 5,5 - - 22 12 - - SW 995,1 0 0,0
14.02.2018 20:00:00 7,8 6,2 - - 16 9 - - WSW 994,7 0 0,0
14.02.2018 19:00:00 7,6 5,9 - - 16 9 - - WSW 994,4 0 0,0
14.02.2018 18:00:00 7,9 6,5 - - 15 8 - - W 993,8 0 1,0
14.02.2018 17:00:00 7,2 6,0 - - 15 8 - - WSW 993,8 0 1,4
14.02.2018 16:00:00 6,7 4,9 - - 8 4 - - SSW 993,2 0 0,6
14.02.2018 15:00:00 6,6 3,5 - - 15 8 48 26 S 993,4 0 0,0
14.02.2018 14:00:00 6,1 3,0 - - 21 11 54 29 S 993,8 0 0,0
14.02.2018 13:00:00 4,9 2,3 - - 21 11 55 30 S 994,8 0 0,0
14.02.2018 12:00:00 4,3 1,8 - - 22 12 57 31 S 995,0 0 0,2
14.02.2018 11:00:00 3,7 1,0 - - 24 13 46 25 SSE 995,7 0 0,6
14.02.2018 10:00:00 3,3 0,8 - - 18 10 55 30 S 996,8 0 -
14.02.2018 09:00:00 3,0 -0,4 4,4 5,5 24 13 52 28 SSE 997,2 0 0,0
14.02.2018 08:00:00 2,5 -2,1 - - 9 5 - - WNW 998,6 0 0,0
14.02.2018 07:00:00 1,8 -3,0 - - 9 5 - - SW 1000,1 0 0,0
14.02.2018 06:00:00 1,8 -3,1 - - 9 5 - - SSE 1001,3 0 0,0
14.02.2018 05:00:00 1,5 -2,9 - - 16 9 - - SW 1001,9 0 0,0
14.02.2018 04:00:00 0,8 -2,9 - - 5 3 - - SE 1002,6 0 0,0
14.02.2018 03:00:00 -0,8 -2,9 - - 4 2 - - E 1003,6 0 0,0
14.02.2018 02:00:00 -1,5 -1,8 - - 4 2 - - E 1005,0 0 0,0
14.02.2018 01:00:00 -2,9 -3,3 - - 2 1 - - ENE 1005,7 0 0,0
14.02.2018 00:00:00 -3,3 -3,8 - - 0 0 - - N 1005,8 - 0,0
13.02.2018 23:00:00 -3,7 -4,4 - - 0 0 - - N 1006,2 0 0,0
13.02.2018 22:00:00 -2,8 -3,5 - - 2 1 - - ENE 1006,5 0 0,0
13.02.2018 21:00:00 -2,6 -3,6 - - 2 1 - - N 1006,6 0 0,0
13.02.2018 20:00:00 -2,1 -3,6 - - 2 1 - - N 1006,2 0 0,0
13.02.2018 19:00:00 -0,9 -3,4 - - 4 2 - - ENE 1005,8 0 0,0
13.02.2018 18:00:00 1,7 -3,0 - - 5 3 - - WNW 1004,7 6 0,0
13.02.2018 17:00:00 3,4 -3,1 - - 5 3 - - WNW 1003,4 54 0,0
13.02.2018 16:00:00 4,8 -3,3 - - 11 6 - - WNW 1002,2 60 0,0
13.02.2018 15:00:00 5,1 -3,2 - - 13 7 - - WNW 1000,8 54 0,0
13.02.2018 14:00:00 4,8 -0,5 - - 13 7 - - NW 999,9 42 0,0

tt = temperature
td = dewpoint
tt -20cm = temperature -20cm
tt -100cm = temperature -100cm
ff = wind speed
fx = gusts
dd = wind direction
ppp = reduced air pressure
sd = sunshine duration
rr = precipitation

Next stations